Time;durP1;ratioP1;P1;durP2;ratioP2;P2;SDS_P1;SDS_P2;PMS_P1;PMS_P2;Temp;Humidity;BMP_temperature;BMP_pressure;BME280_temperature;BME280_humidity;BME280_pressure;Samples;Min_cycle;Max_cycle;Signal;HPM_P1;HPM_P2
2023/06/08 00:01:28;;;;;;;5.25;4.45;;;23.40;99.90;;;;;;4937458;29;20027;-62
2023/06/08 00:03:54;;;;;;;4.22;3.83;;;23.30;99.90;;;;;;4937133;29;20023;-62
2023/06/08 00:06:22;;;;;;;5.20;3.92;;;23.30;99.90;;;;;;4936968;29;20043;-62
2023/06/08 00:08:49;;;;;;;5.45;3.53;;;23.30;99.90;;;;;;4936977;29;20028;-62
2023/06/08 00:11:15;;;;;;;5.70;3.75;;;23.30;99.90;;;;;;4937248;29;20369;-62
2023/06/08 00:13:40;;;;;;;4.32;4.03;;;23.20;99.90;;;;;;4936976;29;20035;-62
2023/06/08 00:16:06;;;;;;;4.10;3.70;;;23.20;99.90;;;;;;4936901;29;20390;-62
2023/06/08 00:18:32;;;;;;;4.85;3.58;;;23.10;99.90;;;;;;4916349;29;20051;-62
2023/06/08 00:20:58;;;;;;;5.10;3.90;;;23.10;99.90;;;;;;4917798;29;20023;-62
2023/06/08 00:23:24;;;;;;;3.83;3.47;;;23.10;99.90;;;;;;4918005;29;20028;-62
2023/06/08 00:25:50;;;;;;;4.97;3.55;;;23.10;99.90;;;;;;4917685;29;20470;-62
2023/06/08 00:28:16;;;;;;;4.07;3.67;;;23.10;99.90;;;;;;4917641;29;20028;-62
2023/06/08 00:30:41;;;;;;;5.97;3.72;;;23.10;99.90;;;;;;4926916;29;20111;-63
2023/06/08 00:33:07;;;;;;;4.10;3.70;;;23.00;99.90;;;;;;4917025;29;20111;-62
2023/06/08 00:35:32;;;;;;;4.10;3.70;;;23.00;99.90;;;;;;4947600;28;20034;-62
2023/06/08 00:37:58;;;;;;;5.60;3.60;;;23.00;99.90;;;;;;4917544;29;20088;-61
2023/06/08 00:40:24;;;;;;;3.50;3.20;;;23.00;99.90;;;;;;4917603;29;20453;-61
2023/06/08 00:42:50;;;;;;;4.50;3.88;;;23.00;99.90;;;;;;4917509;29;20099;-62
2023/06/08 00:45:16;;;;;;;3.88;3.00;;;22.90;99.90;;;;;;4917654;29;20431;-62
2023/06/08 00:47:42;;;;;;;3.67;3.13;;;22.90;99.90;;;;;;4917425;29;20024;-62
2023/06/08 00:50:09;;;;;;;4.07;3.53;;;22.90;99.90;;;;;;4916848;29;20068;-63
2023/06/08 00:52:37;;;;;;;5.10;3.20;;;22.80;99.90;;;;;;4915018;29;20406;-62
2023/06/08 00:55:03;;;;;;;3.40;3.08;;;22.80;99.90;;;;;;4917193;29;20031;-63
2023/06/08 00:57:32;;;;;;;5.10;3.38;;;22.80;99.90;;;;;;4917445;29;20119;-62
2023/06/08 01:00:01;;;;;;;3.08;2.88;;;22.80;99.90;;;;;;4917467;29;20035;-62
2023/06/08 01:02:27;;;;;;;7.80;3.40;;;22.80;99.90;;;;;;4917518;29;20080;-62
2023/06/08 01:04:53;;;;;;;3.40;3.10;;;22.80;99.90;;;;;;4917000;29;20028;-62
2023/06/08 01:07:30;;;;;;;4.78;3.10;;;22.80;99.90;;;;;;4913168;29;20032;-62
2023/06/08 01:10:08;;;;;;;3.70;3.33;;;22.70;99.90;;;;;;4907793;29;20144;-62
2023/06/08 01:13:05;;;;;;;6.90;3.55;;;22.70;99.90;;;;;;4917159;29;20430;-62
2023/06/08 01:15:52;;;;;;;4.25;3.80;;;22.70;99.90;;;;;;4908811;29;20044;-62
2023/06/08 01:18:22;;;;;;;3.35;3.08;;;22.70;99.90;;;;;;4920421;29;20052;-62
2023/06/08 01:21:24;;;;;;;5.63;3.78;;;22.60;99.90;;;;;;4935667;29;20019;-62
2023/06/08 01:24:12;;;;;;;3.53;3.22;;;22.70;99.90;;;;;;4925267;29;20106;-62
2023/06/08 01:26:49;;;;;;;6.57;3.63;;;22.60;99.90;;;;;;4935204;29;20407;-62
2023/06/08 01:29:17;;;;;;;5.85;3.28;;;22.60;99.90;;;;;;4935455;29;20024;-62
2023/06/08 01:31:42;;;;;;;3.47;3.17;;;22.60;99.90;;;;;;4926491;29;20490;-62
2023/06/08 01:34:10;;;;;;;4.35;3.15;;;22.60;99.90;;;;;;4930693;29;20118;-62
2023/06/08 01:36:39;;;;;;;3.83;3.53;;;22.60;99.90;;;;;;4934905;29;20042;-62
2023/06/08 01:39:26;;;;;;;5.35;3.63;;;22.60;99.90;;;;;;4917686;29;20035;-62
2023/06/08 01:41:58;;;;;;;4.00;3.58;;;22.60;99.90;;;;;;4935169;29;20039;-62
2023/06/08 01:44:26;;;;;;;4.40;3.03;;;22.60;99.90;;;;;;4934699;29;20043;-62
2023/06/08 01:46:56;;;;;;;6.93;3.75;;;22.60;99.90;;;;;;4934999;29;20090;-62
2023/06/08 01:49:28;;;;;;;4.95;3.35;;;22.60;99.90;;;;;;4921684;29;20028;-62
2023/06/08 01:51:54;;;;;;;4.80;2.70;;;22.50;99.90;;;;;;4921755;29;20393;-62
2023/06/08 01:54:22;;;;;;;3.83;3.20;;;22.50;99.90;;;;;;4931874;29;20031;-62
2023/06/08 01:56:48;;;;;;;3.35;3.05;;;22.50;99.90;;;;;;4935834;29;20028;-62
2023/06/08 01:59:13;;;;;;;4.53;3.17;;;22.50;99.90;;;;;;4930244;29;20057;-62
2023/06/08 02:01:39;;;;;;;4.43;3.03;;;22.50;99.90;;;;;;4938613;29;20030;-61
2023/06/08 02:04:05;;;;;;;3.88;3.58;;;22.50;99.90;;;;;;4935105;29;20032;-62
2023/06/08 02:06:31;;;;;;;4.57;3.22;;;22.50;99.90;;;;;;4938389;29;20032;-62
2023/06/08 02:08:58;;;;;;;3.47;3.17;;;22.40;99.90;;;;;;4938573;29;20012;-62
2023/06/08 02:11:23;;;;;;;4.13;3.70;;;22.40;99.90;;;;;;4938527;29;20034;-62
2023/06/08 02:13:49;;;;;;;3.80;3.38;;;22.40;99.90;;;;;;4921145;29;20401;-62
2023/06/08 02:16:18;;;;;;;3.85;3.45;;;22.40;99.90;;;;;;4938437;29;20035;-62
2023/06/08 02:18:45;;;;;;;3.45;3.15;;;22.40;99.90;;;;;;4936771;29;20126;-62
2023/06/08 02:21:11;;;;;;;4.82;3.13;;;22.30;99.90;;;;;;4938315;29;20028;-62
2023/06/08 02:23:38;;;;;;;3.97;3.30;;;22.30;99.90;;;;;;4931910;29;20119;-62
2023/06/08 02:26:05;;;;;;;3.15;2.85;;;22.30;1.00;;;;;;4934505;29;20021;-62
2023/06/08 02:28:31;;;;;;;3.40;3.13;;;22.30;99.90;;;;;;4933463;29;20035;-62
2023/06/08 02:30:57;;;;;;;4.25;3.63;;;22.30;99.90;;;;;;4938833;29;20470;-62
2023/06/08 02:36:51;;;;;;;3.75;3.45;;;22.20;1.00;;;;;;4924381;29;20173;-62
2023/06/08 02:39:17;;;;;;;3.78;3.13;;;22.20;1.00;;;;;;4937659;29;20126;-62
2023/06/08 02:41:42;;;;;;;3.55;3.22;;;22.20;1.00;;;;;;4921856;29;20110;-62
2023/06/08 02:44:08;;;;;;;3.22;2.95;;;22.20;1.00;;;;;;4938698;29;20074;-62
2023/06/08 02:46:34;;;;;;;3.50;3.03;;;22.20;99.90;;;;;;4938553;29;20026;-62
2023/06/08 02:49:00;;;;;;;3.83;2.83;;;22.20;99.90;;;;;;4938373;29;20044;-62
2023/06/08 02:51:29;;;;;;;4.13;3.15;;;22.20;1.00;;;;;;4938564;29;20086;-62
2023/06/08 02:53:54;;;;;;;3.83;2.83;;;22.10;99.90;;;;;;4921276;29;20477;-62
2023/06/08 02:56:21;;;;;;;3.53;2.95;;;22.20;99.90;;;;;;4938220;29;20035;-62
2023/06/08 02:58:46;;;;;;;3.72;3.42;;;22.20;99.90;;;;;;4937815;29;20047;-62
2023/06/08 03:01:16;;;;;;;2.97;2.72;;;22.20;99.90;;;;;;4937929;29;20020;-62
2023/06/08 03:03:43;;;;;;;3.10;2.80;;;22.20;99.90;;;;;;4937846;29;20027;-62
2023/06/08 03:06:09;;;;;;;2.97;2.67;;;22.10;1.00;;;;;;4920699;29;20501;-62
2023/06/08 03:08:36;;;;;;;3.22;2.80;;;22.10;1.00;;;;;;4937977;29;20032;-62
2023/06/08 03:11:02;;;;;;;2.80;2.47;;;22.10;1.00;;;;;;4938197;29;20350;-62
2023/06/08 03:13:28;;;;;;;4.55;3.20;;;22.10;1.00;;;;;;4937998;29;20032;-62
2023/06/08 03:15:55;;;;;;;3.05;2.83;;;22.10;1.00;;;;;;4938135;29;20024;-62
2023/06/08 03:18:22;;;;;;;3.30;2.78;;;22.10;1.00;;;;;;4937743;29;20055;-62
2023/06/08 03:20:51;;;;;;;3.60;3.22;;;22.10;1.00;;;;;;4937842;29;20385;-62
2023/06/08 03:23:19;;;;;;;4.53;3.15;;;22.00;1.00;;;;;;4937336;29;20044;-61
2023/06/08 03:25:49;;;;;;;4.53;3.00;;;22.10;1.00;;;;;;4937855;29;20020;-62
2023/06/08 03:28:18;;;;;;;3.83;2.58;;;22.00;1.00;;;;;;4937778;29;20027;-62
2023/06/08 03:30:45;;;;;;;2.88;2.67;;;22.10;1.00;;;;;;4937723;29;20434;-62
2023/06/08 03:33:11;;;;;;;4.60;2.90;;;22.00;1.00;;;;;;4920627;29;20039;-62
2023/06/08 03:35:38;;;;;;;5.05;2.63;;;22.00;1.00;;;;;;4936244;29;20380;-62
2023/06/08 03:38:03;;;;;;;2.95;2.75;;;22.00;1.00;;;;;;4937768;29;20044;-62
2023/06/08 03:40:29;;;;;;;2.92;2.72;;;22.00;1.00;;;;;;4937508;29;20367;-62
2023/06/08 03:42:55;;;;;;;3.95;2.58;;;22.00;1.00;;;;;;4937371;29;20055;-62
2023/06/08 03:45:21;;;;;;;4.72;3.45;;;22.00;99.90;;;;;;4937642;29;20038;-62
2023/06/08 03:47:46;;;;;;;4.78;3.33;;;22.00;1.00;;;;;;4937653;29;20094;-62
2023/06/08 03:50:13;;;;;;;3.80;3.50;;;22.00;1.00;;;;;;4937295;29;20359;-61
2023/06/08 03:52:39;;;;;;;3.88;3.33;;;22.00;1.00;;;;;;4937378;29;20489;-61
2023/06/08 03:55:07;;;;;;;3.50;3.20;;;22.00;1.00;;;;;;4937529;29;20102;-61
2023/06/08 03:57:35;;;;;;;3.75;2.85;;;22.00;1.00;;;;;;4937250;29;20532;-61
2023/06/08 04:00:22;;;;;;;5.50;3.00;;;22.00;1.00;;;;;;4937194;29;20099;-61
2023/06/08 04:02:50;;;;;;;3.33;3.03;;;22.00;99.90;;;;;;4932842;29;20016;-62
2023/06/08 04:05:16;;;;;;;3.25;2.85;;;22.00;99.90;;;;;;4936991;29;20038;-62
2023/06/08 04:07:42;;;;;;;3.08;2.75;;;22.00;99.90;;;;;;4919974;29;20027;-62
2023/06/08 04:10:08;;;;;;;3.70;2.92;;;22.00;99.90;;;;;;4919086;29;20043;-62
2023/06/08 04:12:33;;;;;;;3.65;3.05;;;22.00;1.00;;;;;;4937028;29;20038;-62
2023/06/08 04:15:01;;;;;;;3.22;2.95;;;22.00;1.00;;;;;;4932999;29;20055;-62
2023/06/08 04:17:27;;;;;;;5.22;3.55;;;22.00;1.00;;;;;;4936879;29;20036;-63
2023/06/08 04:19:53;;;;;;;3.30;3.00;;;22.00;1.00;;;;;;4936741;29;20453;-62
2023/06/08 04:22:19;;;;;;;4.47;3.30;;;22.00;1.00;;;;;;4919759;29;20114;-62
2023/06/08 04:24:45;;;;;;;6.65;3.83;;;22.00;1.00;;;;;;4936666;29;20115;-62
2023/06/08 04:27:11;;;;;;;4.50;3.58;;;22.00;1.00;;;;;;4936725;29;20023;-63
2023/06/08 04:29:36;;;;;;;5.25;4.13;;;22.00;1.00;;;;;;4919642;29;20024;-62
2023/06/08 04:32:04;;;;;;;5.10;3.85;;;22.00;1.00;;;;;;4936860;29;20030;-62
2023/06/08 04:34:31;;;;;;;3.90;3.58;;;22.00;1.00;;;;;;4936313;29;20460;-62
2023/06/08 04:36:57;;;;;;;4.72;3.97;;;22.10;1.00;;;;;;4936314;29;20083;-62
2023/06/08 04:39:26;;;;;;;4.13;3.50;;;22.10;1.00;;;;;;4936420;29;20445;-62
2023/06/08 04:41:53;;;;;;;4.25;3.85;;;22.00;1.00;;;;;;4936673;29;20030;-62
2023/06/08 04:44:20;;;;;;;6.10;4.03;;;22.00;1.00;;;;;;4936439;29;20043;-62
2023/06/08 04:46:46;;;;;;;6.18;3.80;;;22.00;1.00;;;;;;4936391;29;20020;-62
2023/06/08 04:49:14;;;;;;;4.53;3.55;;;22.00;1.00;;;;;;4919516;29;20027;-62
2023/06/08 04:51:46;;;;;;;4.10;3.40;;;22.00;1.00;;;;;;4936244;29;20039;-63
2023/06/08 04:54:15;;;;;;;4.80;3.63;;;22.00;1.00;;;;;;4919158;29;20080;-63
2023/06/08 04:56:41;;;;;;;4.18;3.65;;;22.00;1.00;;;;;;4936082;29;20016;-63
2023/06/08 04:59:08;;;;;;;5.15;3.63;;;22.00;1.00;;;;;;4936430;29;20094;-63
2023/06/08 05:01:34;;;;;;;5.60;3.53;;;22.00;1.00;;;;;;4932958;29;20111;-63
2023/06/08 05:04:01;;;;;;;3.47;3.17;;;22.00;1.00;;;;;;4936044;29;20468;-63
2023/06/08 05:06:27;;;;;;;4.10;3.35;;;22.00;1.00;;;;;;4936243;29;20051;-63
2023/06/08 05:08:53;;;;;;;4.15;3.22;;;22.00;1.00;;;;;;4919034;29;20537;-63
2023/06/08 05:11:18;;;;;;;3.83;3.45;;;22.00;1.00;;;;;;4936572;29;20036;-63
2023/06/08 05:13:44;;;;;;;4.75;3.33;;;22.00;1.00;;;;;;4935845;29;20394;-63
2023/06/08 05:16:10;;;;;;;3.53;3.10;;;22.00;1.00;;;;;;4936134;29;20458;-63
2023/06/08 05:18:36;;;;;;;4.93;3.42;;;22.10;1.00;;;;;;4935717;29;20047;-63
2023/06/08 05:21:02;;;;;;;5.65;3.63;;;22.10;99.90;;;;;;4935934;29;20425;-63
2023/06/08 05:23:28;;;;;;;6.15;3.80;;;22.10;99.90;;;;;;4936018;29;20027;-63
2023/06/08 05:25:53;;;;;;;3.67;3.20;;;22.00;99.90;;;;;;4935843;29;20382;-63
2023/06/08 05:28:19;;;;;;;4.18;3.17;;;22.10;99.90;;;;;;4935751;29;20034;-63
2023/06/08 05:30:46;;;;;;;5.80;3.72;;;22.10;1.00;;;;;;4926827;29;20482;-63
2023/06/08 05:33:12;;;;;;;5.82;4.40;;;22.10;99.90;;;;;;4935830;29;20074;-63
2023/06/08 05:35:38;;;;;;;7.82;4.35;;;22.10;99.90;;;;;;4935952;29;20059;-63
2023/06/08 05:38:03;;;;;;;6.75;4.63;;;22.10;99.90;;;;;;4935955;29;20046;-63
2023/06/08 05:40:29;;;;;;;5.82;3.95;;;22.10;99.90;;;;;;4935654;29;20497;-63
2023/06/08 05:42:55;;;;;;;6.28;4.45;;;22.20;99.90;;;;;;4935925;29;20035;-62
2023/06/08 05:45:26;;;;;;;6.72;4.50;;;22.20;99.90;;;;;;4935612;29;20024;-63
2023/06/08 05:47:52;;;;;;;5.60;4.60;;;22.20;1.00;;;;;;4935677;29;20047;-63
2023/06/08 05:50:18;;;;;;;7.03;4.78;;;22.20;1.00;;;;;;4935525;29;20381;-62
2023/06/08 05:52:44;;;;;;;5.35;4.00;;;22.20;1.00;;;;;;4918538;29;20039;-62
2023/06/08 05:55:10;;;;;;;8.18;4.65;;;22.30;1.00;;;;;;4922298;29;20028;-62
2023/06/08 05:57:36;;;;;;;5.80;4.97;;;22.30;1.00;;;;;;4935617;29;20035;-62
2023/06/08 06:00:05;;;;;;;6.80;5.55;;;22.30;1.00;;;;;;4931277;29;20481;-62
2023/06/08 06:03:05;;;;;;;6.28;5.47;;;22.30;1.00;;;;;;4931057;29;20111;-62
2023/06/08 06:05:31;;;;;;;8.88;5.82;;;22.30;1.00;;;;;;4931411;29;20071;-61
2023/06/08 06:07:56;;;;;;;6.28;5.18;;;22.40;1.00;;;;;;4935698;29;20056;-61
2023/06/08 06:10:22;;;;;;;7.53;5.85;;;22.40;1.00;;;;;;4935432;29;20036;-61
2023/06/08 06:12:48;;;;;;;6.07;4.50;;;22.40;1.00;;;;;;4935414;29;20015;-61
2023/06/08 06:15:14;;;;;;;8.02;5.45;;;22.50;1.00;;;;;;4935617;29;20032;-62
2023/06/08 06:17:40;;;;;;;8.85;5.07;;;22.50;1.00;;;;;;4935377;29;20047;-62
2023/06/08 06:20:06;;;;;;;8.07;4.88;;;22.60;99.90;;;;;;4935141;29;20489;-62
2023/06/08 06:22:32;;;;;;;7.95;5.35;;;22.60;99.90;;;;;;4935388;29;20509;-61
2023/06/08 06:24:58;;;;;;;5.13;4.57;;;22.60;1.00;;;;;;4935627;29;20106;-61
2023/06/08 06:27:23;;;;;;;5.55;4.90;;;22.60;1.00;;;;;;4934087;29;20038;-61
2023/06/08 06:29:49;;;;;;;5.82;4.63;;;22.70;1.00;;;;;;4935193;29;20032;-61
2023/06/08 06:32:15;;;;;;;6.35;5.22;;;22.70;1.00;;;;;;4935348;29;20043;-61
2023/06/08 06:34:43;;;;;;;6.35;5.70;;;22.70;1.00;;;;;;4937660;29;20050;-61
2023/06/08 06:37:09;;;;;;;6.75;5.38;;;22.80;99.90;;;;;;4938762;29;20031;-61
2023/06/08 06:39:35;;;;;;;7.88;5.57;;;22.90;99.90;;;;;;4938608;29;20374;-61
2023/06/08 06:42:01;;;;;;;7.95;5.80;;;22.90;99.90;;;;;;4938351;29;20051;-62
2023/06/08 06:44:27;;;;;;;8.30;5.85;;;23.00;99.90;;;;;;4938043;29;20028;-61
2023/06/08 06:46:53;;;;;;;6.95;5.07;;;22.90;99.90;;;;;;4938368;29;20091;-61
2023/06/08 06:49:19;;;;;;;9.07;6.20;;;23.00;99.90;;;;;;4938612;29;20126;-62
2023/06/08 06:51:47;;;;;;;8.80;5.80;;;23.00;99.90;;;;;;4938542;29;20478;-61
2023/06/08 06:54:13;;;;;;;7.22;5.05;;;23.10;99.90;;;;;;4938245;29;20497;-62
2023/06/08 06:56:38;;;;;;;8.07;5.63;;;23.10;99.90;;;;;;4938520;29;20032;-61
2023/06/08 06:59:05;;;;;;;9.02;5.68;;;23.10;99.90;;;;;;4938089;29;20047;-61
2023/06/08 07:01:35;;;;;;;8.10;6.13;;;23.10;99.90;;;;;;4938613;29;20024;-62
2023/06/08 07:04:04;;;;;;;8.77;6.80;;;23.10;99.90;;;;;;4938332;29;20179;-62
2023/06/08 07:06:31;;;;;;;8.30;6.15;;;23.10;99.90;;;;;;4921115;29;20412;-62
2023/06/08 07:08:56;;;;;;;6.35;5.68;;;23.00;99.90;;;;;;4938167;29;20096;-63
2023/06/08 07:11:26;;;;;;;7.68;6.25;;;23.00;99.90;;;;;;4938048;29;20044;-61
2023/06/08 07:13:51;;;;;;;7.82;6.38;;;23.00;99.90;;;;;;4937892;29;20032;-62
2023/06/08 07:16:17;;;;;;;8.18;6.90;;;23.00;1.00;;;;;;4938312;29;20031;-62
2023/06/08 07:18:43;;;;;;;7.55;6.80;;;23.00;1.00;;;;;;4937717;29;20043;-62
2023/06/08 07:21:08;;;;;;;8.32;7.20;;;23.00;1.00;;;;;;4938185;29;20050;-62
2023/06/08 07:23:34;;;;;;;10.98;8.13;;;23.00;1.00;;;;;;4937913;29;20024;-61
2023/06/08 07:26:00;;;;;;;11.43;8.80;;;23.00;1.00;;;;;;4937784;29;20028;-61
2023/06/08 07:28:25;;;;;;;9.88;8.27;;;23.00;1.00;;;;;;4937823;29;20082;-61
2023/06/08 07:30:51;;;;;;;13.98;8.75;;;23.00;1.00;;;;;;4936815;29;20032;-62
2023/06/08 07:33:17;;;;;;;14.25;9.60;;;23.10;1.00;;;;;;4937703;29;20034;-62
2023/06/08 07:35:42;;;;;;;9.73;8.27;;;23.20;1.00;;;;;;4937783;29;20023;-62
2023/06/08 07:38:08;;;;;;;11.50;8.85;;;23.10;99.90;;;;;;4937643;29;20095;-62
2023/06/08 07:40:34;;;;;;;10.32;8.13;;;23.20;99.90;;;;;;4937813;29;20110;-62
2023/06/08 07:43:01;;;;;;;12.32;10.48;;;23.20;99.90;;;;;;4937437;29;20167;-61
2023/06/08 07:45:27;;;;;;;13.10;9.90;;;23.20;99.90;;;;;;4936442;29;20015;-61
2023/06/08 07:47:52;;;;;;;12.13;9.50;;;23.20;99.90;;;;;;4920239;29;20479;-62
2023/06/08 07:50:20;;;;;;;10.32;9.32;;;23.20;99.90;;;;;;4937329;29;20028;-62
2023/06/08 07:52:45;;;;;;;13.77;10.10;;;23.30;99.90;;;;;;4937430;29;20497;-62
2023/06/08 07:55:11;;;;;;;11.35;10.25;;;23.30;99.90;;;;;;4937299;29;20047;-62
2023/06/08 07:57:38;;;;;;;10.50;8.93;;;23.30;99.90;;;;;;4937518;29;20075;-62
2023/06/08 08:00:05;;;;;;;11.52;9.13;;;23.40;99.90;;;;;;4937147;29;20486;-62
2023/06/08 08:02:31;;;;;;;11.88;10.35;;;23.40;99.90;;;;;;4937384;29;20103;-62
2023/06/08 08:04:57;;;;;;;13.10;10.20;;;23.50;99.90;;;;;;4937336;29;20052;-62
2023/06/08 08:07:22;;;;;;;14.23;10.23;;;23.50;99.90;;;;;;4921656;29;20068;-62
2023/06/08 08:09:48;;;;;;;10.07;9.02;;;23.50;99.90;;;;;;4931347;29;20031;-62
2023/06/08 08:12:13;;;;;;;11.23;10.07;;;23.60;99.90;;;;;;4936936;29;20557;-62
2023/06/08 08:14:40;;;;;;;9.52;8.50;;;23.60;99.90;;;;;;4936952;29;20032;-61
2023/06/08 08:17:06;;;;;;;11.68;10.20;;;23.60;99.90;;;;;;4936768;29;20027;-61
2023/06/08 08:19:32;;;;;;;11.18;9.95;;;23.60;99.90;;;;;;4936605;29;20112;-62
2023/06/08 08:21:57;;;;;;;11.65;10.00;;;23.70;99.90;;;;;;4936673;29;20055;-62
2023/06/08 08:24:23;;;;;;;10.18;8.95;;;23.70;99.90;;;;;;4936823;29;20044;-62
2023/06/08 08:26:54;;;;;;;12.30;10.50;;;23.80;99.90;;;;;;4936984;29;20042;-61
2023/06/08 08:29:20;;;;;;;14.40;11.13;;;23.80;99.90;;;;;;4936954;29;20385;-65
2023/06/08 08:31:46;;;;;;;19.25;11.48;;;23.90;99.90;;;;;;4936121;29;20032;-65
2023/06/08 08:34:11;;;;;;;10.43;9.27;;;23.90;99.90;;;;;;4925223;29;20028;-64
2023/06/08 08:36:38;;;;;;;11.65;10.50;;;23.90;99.90;;;;;;4935453;29;20555;-64
2023/06/08 08:39:04;;;;;;;13.77;12.25;;;23.90;99.90;;;;;;4936437;29;20048;-65
2023/06/08 08:41:32;;;;;;;12.75;11.23;;;24.00;99.90;;;;;;4936479;29;20035;-64
2023/06/08 08:44:02;;;;;;;14.30;11.52;;;24.00;99.90;;;;;;4936537;29;20031;-65
2023/06/08 08:46:33;;;;;;;12.55;11.25;;;24.00;99.90;;;;;;4936426;29;20027;-65
2023/06/08 08:49:04;;;;;;;12.93;11.45;;;24.10;99.90;;;;;;4936289;29;20469;-65
2023/06/08 08:51:32;;;;;;;12.82;11.48;;;24.10;99.90;;;;;;4936326;29;20438;-64
2023/06/08 08:54:00;;;;;;;12.48;11.20;;;24.10;99.90;;;;;;4936678;29;20371;-65
2023/06/08 08:56:28;;;;;;;12.77;11.57;;;24.20;99.90;;;;;;4936169;29;20067;-65
2023/06/08 08:58:54;;;;;;;15.57;13.15;;;24.20;99.90;;;;;;4936199;29;20035;-64
2023/06/08 09:01:22;;;;;;;13.40;11.15;;;24.20;99.90;;;;;;4936507;29;20027;-65
2023/06/08 09:03:48;;;;;;;14.02;10.52;;;24.30;99.90;;;;;;4936099;29;20406;-66
2023/06/08 09:06:14;;;;;;;16.48;14.68;;;24.30;99.90;;;;;;4936127;29;20039;-64
2023/06/08 09:08:40;;;;;;;12.48;11.23;;;24.40;99.90;;;;;;4936045;29;20023;-64
2023/06/08 09:11:09;;;;;;;15.10;13.48;;;24.50;99.90;;;;;;4936219;29;20020;-65
2023/06/08 09:13:35;;;;;;;15.88;14.27;;;24.50;99.90;;;;;;4936117;29;20090;-64
2023/06/08 09:16:15;;;;;;;14.73;13.13;;;24.60;99.90;;;;;;4935962;29;20032;-65
2023/06/08 09:18:43;;;;;;;15.75;14.10;;;24.60;99.90;;;;;;4935428;29;20048;-65
2023/06/08 09:21:24;;;;;;;13.38;11.15;;;24.60;99.90;;;;;;4935734;29;20469;-65
2023/06/08 09:24:06;;;;;;;17.48;15.05;;;24.60;99.90;;;;;;4935711;29;20492;-65
2023/06/08 09:26:32;;;;;;;16.40;14.75;;;24.70;99.90;;;;;;4936172;29;20046;-65
2023/06/08 09:29:03;;;;;;;12.18;10.93;;;24.70;99.90;;;;;;4935795;29;20024;-66
2023/06/08 09:31:30;;;;;;;13.80;12.38;;;24.80;99.90;;;;;;4935831;29;20126;-65
2023/06/08 09:34:09;;;;;;;17.65;15.43;;;24.80;99.90;;;;;;4935699;29;20019;-65
2023/06/08 09:36:37;;;;;;;17.05;14.15;;;24.90;99.90;;;;;;4935887;29;20458;-64
2023/06/08 09:39:11;;;;;;;19.85;14.55;;;24.90;99.90;;;;;;4935551;29;20112;-64
2023/06/08 09:41:37;;;;;;;17.65;15.75;;;24.80;99.90;;;;;;4935763;29;20034;-65
2023/06/08 09:44:20;;;;;;;18.30;16.17;;;24.90;99.90;;;;;;4935632;29;20032;-65
2023/06/08 09:46:45;;;;;;;15.70;13.20;;;24.90;99.90;;;;;;4918694;29;20028;-65
2023/06/08 09:49:13;;;;;;;14.07;12.65;;;25.00;99.90;;;;;;4935714;29;20039;-65
2023/06/08 09:51:49;;;;;;;20.08;15.93;;;25.00;99.90;;;;;;4918801;29;20023;-64
2023/06/08 09:54:20;;;;;;;16.70;14.13;;;25.10;99.90;;;;;;4932436;29;20386;-67
2023/06/08 09:56:48;;;;;;;15.07;13.55;;;25.10;99.90;;;;;;4935616;29;20075;-69
2023/06/08 09:59:17;;;;;;;16.52;14.65;;;25.20;99.90;;;;;;4935564;29;20040;-67
2023/06/08 10:01:46;;;;;;;19.13;17.17;;;25.30;99.90;;;;;;4935435;29;20035;-69
2023/06/08 10:04:21;;;;;;;21.00;18.80;;;25.30;99.90;;;;;;4935466;29;20031;-71
2023/06/08 10:06:51;;;;;;;17.15;15.55;;;25.20;99.90;;;;;;4935748;29;20462;-71
2023/06/08 10:09:21;;;;;;;16.58;14.93;;;25.30;99.90;;;;;;4937877;29;20404;-71
2023/06/08 10:11:48;;;;;;;18.65;16.75;;;25.40;99.90;;;;;;4939455;29;20114;-69
2023/06/08 10:14:16;;;;;;;22.25;18.20;;;25.50;99.90;;;;;;4939298;29;20103;-68
2023/06/08 10:16:42;;;;;;;18.55;16.65;;;25.50;99.90;;;;;;4939070;29;20051;-64
2023/06/08 10:19:10;;;;;;;22.70;17.35;;;25.50;99.90;;;;;;4938878;29;20522;-66
2023/06/08 10:21:36;;;;;;;18.02;16.13;;;25.70;99.90;;;;;;4921965;29;20122;-65
2023/06/08 10:24:03;;;;;;;13.07;11.80;;;25.70;99.90;;;;;;4938666;29;20023;-66
2023/06/08 10:26:29;;;;;;;16.65;14.90;;;25.90;99.90;;;;;;4939081;29;20038;-66
2023/06/08 10:29:10;;;;;;;18.65;16.95;;;26.00;99.90;;;;;;4937626;29;20027;-66
2023/06/08 10:31:40;;;;;;;18.33;16.45;;;26.10;99.90;;;;;;4939218;29;20489;-65
2023/06/08 10:34:11;;;;;;;22.35;17.70;;;26.30;99.90;;;;;;4938638;29;20028;-62
2023/06/08 10:36:42;;;;;;;19.85;17.75;;;26.40;99.90;;;;;;4921718;29;20038;-63
2023/06/08 10:39:12;;;;;;;16.90;15.20;;;26.60;99.90;;;;;;4938865;29;20047;-63
2023/06/08 10:41:44;;;;;;;14.43;13.02;;;26.50;99.90;;;;;;4938590;29;20059;-63
2023/06/08 10:44:40;;;;;;;18.00;16.20;;;26.70;99.90;;;;;;4939146;29;20122;-63
2023/06/08 10:47:12;;;;;;;14.65;13.15;;;26.80;99.90;;;;;;4928132;29;20418;-63
2023/06/08 10:49:44;;;;;;;19.40;16.45;;;26.90;99.90;;;;;;4921340;29;20389;-63
2023/06/08 10:52:17;;;;;;;18.02;16.38;;;27.00;99.90;;;;;;4938920;29;20019;-63
2023/06/08 10:55:11;;;;;;;15.07;13.48;;;27.20;99.90;;;;;;4938407;29;20032;-63
2023/06/08 10:57:44;;;;;;;17.40;14.70;;;27.10;99.90;;;;;;4932980;29;20062;-63
2023/06/08 11:01:03;;;;;;;17.88;16.08;;;27.10;99.90;;;;;;4938146;29;20586;-63
2023/06/08 11:03:15;;;;;;;20.00;17.95;;;27.20;99.90;;;;;;4932683;29;20040;-63
2023/06/08 11:05:43;;;;;;;20.85;18.85;;;27.50;99.90;;;;;;4921224;29;20044;-63
2023/06/08 11:08:10;;;;;;;22.83;20.42;;;27.60;99.90;;;;;;4938100;29;20027;-63
2023/06/08 11:10:39;;;;;;;18.38;16.58;;;27.60;99.90;;;;;;4938409;29;20142;-63
2023/06/08 11:13:13;;;;;;;19.10;17.05;;;27.50;99.90;;;;;;4938482;29;20102;-64
2023/06/08 11:15:41;;;;;;;20.98;18.95;;;27.80;99.90;;;;;;4919659;29;20035;-63
2023/06/08 11:18:08;;;;;;;19.90;18.00;;;27.90;99.90;;;;;;4930652;29;20482;-63
2023/06/08 11:20:41;;;;;;;23.85;21.38;;;28.20;99.90;;;;;;4937545;29;20023;-63
2023/06/08 11:23:12;;;;;;;20.85;18.95;;;28.40;99.90;;;;;;4938004;29;20039;-64
2023/06/08 11:25:39;;;;;;;21.30;19.20;;;28.50;99.90;;;;;;4920770;29;20084;-62
2023/06/08 11:28:07;;;;;;;14.60;13.23;;;28.90;99.90;;;;;;4937893;29;20090;-62
2023/06/08 11:30:35;;;;;;;15.52;13.93;;;29.10;99.90;;;;;;4937815;29;20036;-62
2023/06/08 11:33:04;;;;;;;14.65;13.25;;;29.30;99.90;;;;;;4920626;29;20031;-62
2023/06/08 11:35:29;;;;;;;13.98;12.57;;;29.60;99.90;;;;;;4937642;29;20036;-65
2023/06/08 11:37:59;;;;;;;17.77;16.17;;;29.90;99.90;;;;;;4937575;29;20062;-65
2023/06/08 11:40:25;;;;;;;18.50;16.85;;;30.40;99.90;;;;;;4937637;29;20056;-65
2023/06/08 11:42:51;;;;;;;18.90;17.20;;;30.70;99.90;;;;;;4937809;29;20384;-66
2023/06/08 11:45:17;;;;;;;16.80;15.30;;;30.90;99.90;;;;;;4937452;29;20098;-65
2023/06/08 11:47:44;;;;;;;17.45;15.70;;;31.20;99.90;;;;;;4937427;29;20024;-65
2023/06/08 11:50:12;;;;;;;16.25;14.75;;;32.20;99.90;;;;;;4937515;29;20568;-65
2023/06/08 11:52:39;;;;;;;16.60;14.98;;;33.50;99.90;;;;;;4937446;29;20028;-65
2023/06/08 11:55:24;;;;;;;13.02;11.82;;;35.10;99.90;;;;;;4937248;29;20059;-65
2023/06/08 11:57:57;;;;;;;15.25;13.95;;;36.10;99.90;;;;;;4937311;29;20493;-65
2023/06/08 12:00:29;;;;;;;15.60;14.20;;;36.90;99.90;;;;;;4920273;29;20437;-65
2023/06/08 12:02:56;;;;;;;15.05;13.75;;;36.90;99.90;;;;;;4937243;29;20422;-65
2023/06/08 12:05:32;;;;;;;13.63;12.43;;;36.70;99.90;;;;;;4937109;29;20032;-64
2023/06/08 12:08:03;;;;;;;12.27;11.18;;;35.30;99.90;;;;;;4937338;29;20034;-63
2023/06/08 12:10:38;;;;;;;9.52;8.73;;;36.20;99.90;;;;;;4936968;29;20036;-64
2023/06/08 12:13:07;;;;;;;11.68;10.68;;;38.80;99.90;;;;;;4937226;29;20028;-64
2023/06/08 12:15:53;;;;;;;9.07;8.30;;;39.60;99.90;;;;;;4936847;29;20032;-64
2023/06/08 12:18:21;;;;;;;9.27;8.43;;;40.40;99.90;;;;;;4936783;29;20062;-64
2023/06/08 12:20:51;;;;;;;9.90;9.10;;;39.40;99.90;;;;;;4936665;29;20367;-64
2023/06/08 12:23:17;;;;;;;10.00;8.98;;;39.40;99.90;;;;;;4935672;29;20482;-65
2023/06/08 12:25:43;;;;;;;11.50;10.30;;;40.30;99.90;;;;;;4917920;29;20056;-65
2023/06/08 12:28:20;;;;;;;10.23;9.43;;;40.00;99.90;;;;;;4928184;29;20032;-65
2023/06/08 12:30:46;;;;;;;10.40;9.40;;;39.00;99.90;;;;;;4935861;29;20035;-65
2023/06/08 12:33:17;;;;;;;9.77;8.98;;;38.10;99.90;;;;;;4936328;29;20512;-65
2023/06/08 12:35:49;;;;;;;10.30;9.40;;;37.90;99.90;;;;;;4936558;29;20035;-65
2023/06/08 12:38:15;;;;;;;12.10;11.00;;;37.90;99.90;;;;;;4936432;29;20516;-65
2023/06/08 12:40:47;;;;;;;12.48;11.13;;;38.30;99.90;;;;;;4936469;29;20054;-65
2023/06/08 12:43:19;;;;;;;10.27;9.48;;;38.40;99.90;;;;;;4936314;29;20059;-65
2023/06/08 12:45:46;;;;;;;10.18;9.27;;;38.60;99.90;;;;;;4936455;29;20501;-65
2023/06/08 12:48:13;;;;;;;10.32;9.43;;;37.70;99.90;;;;;;4936371;29;20113;-64
2023/06/08 12:50:38;;;;;;;10.38;8.57;;;37.10;99.90;;;;;;4936345;29;20095;-65
2023/06/08 12:53:05;;;;;;;8.70;8.00;;;37.10;99.90;;;;;;4936459;29;20466;-65